createdAt,value
2019-04-05T03:07:12.038Z,20.2
2019-04-05T03:08:01.844Z,20.3
2019-04-05T03:09:06.833Z,20.3
2019-04-05T03:09:42.251Z,20.3
2019-04-05T03:10:32.268Z,20.3
2019-04-05T03:11:21.778Z,20.3
2019-04-05T03:12:12.153Z,20.3
2019-04-05T03:13:02.178Z,20.3
2019-04-05T03:13:52.274Z,20.2
2019-04-05T03:14:42.178Z,20.3
2019-04-05T03:15:32.058Z,20.3
2019-04-05T03:16:41.767Z,20.3
2019-04-05T03:17:12.496Z,20.3
2019-04-05T03:18:02.593Z,20.3
2019-04-05T03:18:52.878Z,20.3
2019-04-05T03:19:42.397Z,20.3
2019-04-05T03:20:32.984Z,20.3
2019-04-05T03:21:22.835Z,20.3
2019-04-05T03:22:13.091Z,20.3
2019-04-05T03:23:02.909Z,20.3
2019-04-05T03:23:53.231Z,20.3
2019-04-05T03:24:43.310Z,20.3
2019-04-05T03:25:33.195Z,20.2
2019-04-05T03:26:23.402Z,20.3
2019-04-05T03:27:12.929Z,20.3
2019-04-05T03:28:03.216Z,20.3
2019-04-05T03:28:53.588Z,20.3
2019-04-05T03:29:43.352Z,20.3
2019-04-05T03:30:33.808Z,20.3
2019-04-05T03:31:29.075Z,20.3
2019-04-05T03:32:14.034Z,20.3
2019-04-05T03:33:04.130Z,20.2
2019-04-05T03:33:54.047Z,20.2
2019-04-05T03:34:44.258Z,20.2
2019-04-05T03:35:33.975Z,20.2
2019-04-05T03:36:23.832Z,20.3
2019-04-05T03:37:13.363Z,20.2
2019-04-05T03:38:03.704Z,20.2
2019-04-05T03:38:53.751Z,20.2
2019-04-05T03:39:44.418Z,20.2
2019-04-05T03:40:33.607Z,20.2
2019-04-05T03:41:24.759Z,20.2
2019-04-05T03:42:13.984Z,20.2
2019-04-05T03:43:03.846Z,20.2
2019-04-05T03:43:54.439Z,20.2
2019-04-05T03:44:44.509Z,20.2
2019-04-05T03:45:34.505Z,20.3
2019-04-05T03:46:24.316Z,20.2
2019-04-05T03:47:14.652Z,20.2
2019-04-05T03:48:04.814Z,20.2
2019-04-05T03:48:54.812Z,20.2
2019-04-05T03:49:45.109Z,20.2
2019-04-05T03:50:34.617Z,20.2
2019-04-05T03:51:25.054Z,20.2
2019-04-05T03:52:15.272Z,20.2
2019-04-05T03:53:05.342Z,20.2
2019-04-05T03:53:55.153Z,20.2
2019-04-05T03:54:45.196Z,20.2
2019-04-05T03:55:35.507Z,20.2
2019-04-05T03:56:25.591Z,20.2
2019-04-05T03:57:15.385Z,20.2
2019-04-05T03:58:05.642Z,20.2
2019-04-05T03:58:55.244Z,20.2
2019-04-05T03:59:45.809Z,20.2
2019-04-05T04:00:35.916Z,20.2
2019-04-05T04:01:25.711Z,20.2
2019-04-05T04:02:15.714Z,20.2
2019-04-05T04:03:06.059Z,20.1
2019-04-05T04:03:55.878Z,20.2
2019-04-05T04:05:00.841Z,20.2
2019-04-05T04:05:35.689Z,20.1
2019-04-05T04:06:26.116Z,20.2
2019-04-05T04:07:16.101Z,20.2
2019-04-05T04:08:06.443Z,20.1
2019-04-05T04:08:55.816Z,20.1
2019-04-05T04:09:46.572Z,20.1
2019-04-05T04:10:36.306Z,20.2
2019-04-05T04:11:26.397Z,20.1
2019-04-05T04:12:16.757Z,20.1
2019-04-05T04:13:06.638Z,20.2
2019-04-05T04:13:56.821Z,20.1
2019-04-05T04:14:46.610Z,20.2
2019-04-05T04:15:37.027Z,20.1
2019-04-05T04:16:26.766Z,20.1
2019-04-05T04:17:16.963Z,20.1
2019-04-05T04:18:07.112Z,20.2
2019-04-05T04:18:57.262Z,20.1
2019-04-05T04:19:47.285Z,20.1
2019-04-05T04:20:37.345Z,20.2
2019-04-05T04:21:27.128Z,20.1
2019-04-05T04:22:17.175Z,20.2
2019-04-05T04:23:07.504Z,20.1
2019-04-05T04:23:57.566Z,20.1
2019-04-05T04:24:47.761Z,20.1
2019-04-05T04:25:37.731Z,20.1
2019-04-05T04:26:27.740Z,20.1
2019-04-05T04:27:17.547Z,20.1
2019-04-05T04:28:07.307Z,20.1
2019-04-05T04:28:58.032Z,20.1
2019-04-05T04:29:47.989Z,20.1
2019-04-05T04:30:37.226Z,20.1
2019-04-05T04:31:27.853Z,20.1
2019-04-05T04:32:18.260Z,20.1
2019-04-05T04:33:08.355Z,20.1
2019-04-05T04:33:58.387Z,20.1
2019-04-05T04:34:48.344Z,20.2
2019-04-05T04:35:52.812Z,20.1
2019-04-05T04:36:28.216Z,20.1
2019-04-05T04:37:18.251Z,20.1
2019-04-05T04:38:08.565Z,20.1
2019-04-05T04:38:58.391Z,20.2
2019-04-05T04:39:48.435Z,20.1
2019-04-05T04:40:38.527Z,20.1
2019-04-05T04:41:32.911Z,20.1
2019-04-05T04:42:18.870Z,20.1
2019-04-05T04:43:08.640Z,20.1
2019-04-05T04:43:59.009Z,20.1
2019-04-05T04:44:49.033Z,20.1
2019-04-05T04:45:38.325Z,20.1
2019-04-05T04:46:29.180Z,20.1
2019-04-05T04:47:30.261Z,20.1
2019-04-05T04:48:09.341Z,20.1
2019-04-05T04:48:59.073Z,20.1
2019-04-05T04:49:49.418Z,20.1
2019-04-05T04:50:39.192Z,20.1
2019-04-05T04:51:29.495Z,20.1
2019-04-05T04:52:33.965Z,20.1
2019-04-05T04:53:09.350Z,20.1
2019-04-05T04:53:59.422Z,20.1
2019-04-05T04:54:49.740Z,20.1
2019-04-05T04:55:39.860Z,20.1
2019-04-05T04:56:29.594Z,20.1
2019-04-05T04:57:19.923Z,20.1
2019-04-05T04:58:09.181Z,20.1
2019-04-05T04:58:59.219Z,20.1
2019-04-05T04:59:50.117Z,20.1
2019-04-05T05:00:39.905Z,20.1
2019-04-05T05:01:29.734Z,20.1
2019-04-05T05:02:20.315Z,20.1
2019-04-05T05:03:10.076Z,20.1
2019-04-05T05:04:00.424Z,20.1
2019-04-05T05:04:50.546Z,20.1
2019-04-05T05:05:40.562Z,20.1
2019-04-05T05:06:30.315Z,20.1
2019-04-05T05:07:20.392Z,20.1
2019-04-05T05:08:10.722Z,20.1
2019-04-05T05:09:00.529Z,20.1
2019-04-05T05:09:50.563Z,20.1
2019-04-05T05:10:40.899Z,20.1
2019-04-05T05:11:30.131Z,20.1
2019-04-05T05:12:20.749Z,20.1
2019-04-05T05:13:10.879Z,20.1
2019-04-05T05:14:01.136Z,20.1
2019-04-05T05:14:50.718Z,20.1
2019-04-05T05:15:41.250Z,20.1
2019-04-05T05:16:29.807Z,20.1
2019-04-05T05:17:20.909Z,20.1
2019-04-05T05:18:10.404Z,20.1
2019-04-05T05:19:00.741Z,20.1
2019-04-05T05:19:50.807Z,20.1
2019-04-05T05:20:43.292Z,20.1
2019-04-05T05:21:31.186Z,20.1
2019-04-05T05:22:21.248Z,20.1
2019-04-05T05:23:10.827Z,20.1
2019-04-05T05:24:01.376Z,20.1
2019-04-05T05:24:51.437Z,20.1
2019-04-05T05:25:41.501Z,20.1
2019-04-05T05:26:32.031Z,20.1
2019-04-05T05:27:21.616Z,20.1
2019-04-05T05:28:12.158Z,20.1
2019-04-05T05:29:01.793Z,20.1
2019-04-05T05:29:51.528Z,20.1
2019-04-05T05:30:42.261Z,20.1
2019-04-05T05:31:32.122Z,20.1
2019-04-05T05:32:22.180Z,20.1
2019-04-05T05:33:12.250Z,20.1
2019-04-05T05:34:02.300Z,20.1
2019-04-05T05:35:05.568Z,20.1
2019-04-05T05:35:42.160Z,20.1
2019-04-05T05:36:32.711Z,20.1
2019-04-05T05:37:22.556Z,20.1
2019-04-05T05:38:27.558Z,20.1
2019-04-05T05:39:02.962Z,20.1
2019-04-05T05:39:53.237Z,20.1
2019-04-05T05:40:42.772Z,20.1
2019-04-05T05:41:32.878Z,20.1
2019-04-05T05:42:22.640Z,20.1
2019-04-05T05:43:13.242Z,20.1
2019-04-05T05:44:03.312Z,20.1
2019-04-05T05:44:53.142Z,20.1
2019-04-05T05:45:43.210Z,20.1
2019-04-05T05:46:33.495Z,20.1
2019-04-05T05:47:23.331Z,20.1
2019-04-05T05:48:13.096Z,20.1
2019-04-05T05:49:03.711Z,20.1
2019-04-05T05:49:53.722Z,20.1
2019-04-05T05:50:43.755Z,20.1
2019-04-05T05:51:33.838Z,20.1
2019-04-05T05:52:23.629Z,20.1
2019-04-05T05:53:13.416Z,20.1
2019-04-05T05:54:03.773Z,20.1
2019-04-05T05:54:53.307Z,20.1
2019-04-05T05:55:44.151Z,20.1
2019-04-05T05:56:33.742Z,20.1
2019-04-05T05:57:24.269Z,20.1
2019-04-05T05:58:14.034Z,20.1
2019-04-05T05:59:04.127Z,20.1
2019-04-05T05:59:54.431Z,20.1
2019-04-05T06:00:44.218Z,20.1
2019-04-05T06:01:33.739Z,20.1
2019-04-05T06:02:24.156Z,20.1
2019-04-05T06:05:11.103Z,20.1
2019-04-05T06:06:07.845Z,20.1
2019-04-05T06:06:51.704Z,20.1
2019-04-05T06:07:41.291Z,20.1
2019-04-05T06:08:32.481Z,20.1
2019-04-05T06:09:21.392Z,20.1
2019-04-05T06:10:11.996Z,20.1
2019-04-05T06:11:01.448Z,20.1
2019-04-05T06:11:52.131Z,20.1
2019-04-05T06:12:42.101Z,20.1
2019-04-05T06:13:32.203Z,20.1
2019-04-05T06:14:22.603Z,20.1
2019-04-05T06:15:12.021Z,20.1
2019-04-05T06:16:02.671Z,20.1
2019-04-05T06:17:07.607Z,20.1
2019-04-05T06:17:42.828Z,20.1
2019-04-05T06:18:32.807Z,20.1
2019-04-05T06:19:22.659Z,20.1
2019-04-05T06:20:11.960Z,20.1
2019-04-05T06:21:06.301Z,20.1
2019-04-05T06:21:53.043Z,20.1
2019-04-05T06:22:42.540Z,20.1
2019-04-05T06:23:37.290Z,20.1
2019-04-05T06:24:23.248Z,20.1
2019-04-05T06:25:13.453Z,20.1
2019-04-05T06:26:03.094Z,20.1
2019-04-05T06:26:53.430Z,20.1
2019-04-05T06:27:43.180Z,20.1
2019-04-05T06:28:33.786Z,20.1
2019-04-05T06:29:23.581Z,20.1
2019-04-05T06:30:13.144Z,20.1
2019-04-05T06:31:03.777Z,20.1
2019-04-05T06:31:53.712Z,20.1
2019-04-05T06:32:43.290Z,20.1
2019-04-05T06:33:38.329Z,20.1
2019-04-05T06:34:23.402Z,20.1
2019-04-05T06:35:13.714Z,20.1
2019-04-05T06:36:03.809Z,20.1
2019-04-05T06:36:54.451Z,20.1
2019-04-05T06:37:44.199Z,20.1
2019-04-05T06:38:33.706Z,20.1
2019-04-05T06:39:24.090Z,20.1
2019-04-05T06:40:13.807Z,20.1
2019-04-05T06:41:04.294Z,20.1
2019-04-05T06:41:53.656Z,20.1
2019-04-05T06:42:44.279Z,20.1
2019-04-05T06:43:34.062Z,20.1
2019-04-05T06:44:27.685Z,20.1
2019-04-05T06:45:14.201Z,20.1
2019-04-05T06:46:06.110Z,20.1
2019-04-05T06:46:54.786Z,20.1
2019-04-05T06:47:44.442Z,20.1
2019-04-05T06:48:34.976Z,20.1
2019-04-05T06:49:25.046Z,20.1
2019-04-05T06:50:14.521Z,20.1
2019-04-05T06:51:04.661Z,20.1
2019-04-05T06:51:55.233Z,20.1
2019-04-05T06:52:44.709Z,19.1
2019-04-05T06:53:35.326Z,34.3
2019-04-05T06:54:25.391Z,42.1
2019-04-05T06:55:15.452Z,45.3
2019-04-05T06:56:05.533Z,44.9
2019-04-05T06:56:55.594Z,44.3
2019-04-05T06:57:45.735Z,43.8
2019-04-05T06:58:35.686Z,43.3
2019-04-05T06:59:25.481Z,42.7
2019-04-05T07:00:15.146Z,42.2
2019-04-05T07:01:05.023Z,41.7
2019-04-05T07:01:55.922Z,40.9
2019-04-05T07:02:45.986Z,40.7
2019-04-05T07:05:11.873Z,39.4
2019-04-05T07:06:01.608Z,38.8
2019-04-05T07:06:51.943Z,38.4
2019-04-05T07:07:41.735Z,37.9
2019-04-05T07:08:32.148Z,37.5
2019-04-05T07:09:21.567Z,37.1
2019-04-05T07:10:11.894Z,36.8
2019-04-05T07:11:02.294Z,36.4
2019-04-05T07:11:52.295Z,36
2019-04-05T07:12:41.557Z,35.6
2019-04-05T07:13:32.277Z,35.3
2019-04-05T07:14:22.502Z,34.9
2019-04-05T07:15:11.977Z,34.6
2019-04-05T07:16:02.579Z,34.3
2019-04-05T07:16:52.659Z,35.5
2019-04-05T07:17:42.698Z,37.1
2019-04-05T07:18:39.128Z,46.4
2019-04-05T07:19:22.842Z,48.7
2019-04-05T07:20:12.400Z,48.2
2019-04-05T07:21:02.420Z,46.6
2019-04-05T07:21:52.743Z,43.9
2019-04-05T07:22:42.344Z,42.6
2019-04-05T07:23:32.872Z,41.9
2019-04-05T07:24:22.964Z,41.4
2019-04-05T07:25:13.279Z,40.9
2019-04-05T07:26:03.309Z,40.4
2019-04-05T07:26:52.573Z,40
2019-04-05T07:27:43.434Z,39.6
2019-04-05T07:28:33.514Z,39.1
2019-04-05T07:29:23.611Z,38.7
2019-04-05T07:30:13.634Z,38.3
2019-04-05T07:31:03.491Z,37.9
2019-04-05T07:31:53.726Z,38.1
2019-04-05T07:32:43.245Z,39.2
2019-04-05T07:33:32.826Z,47.6
2019-04-05T07:34:23.914Z,51.1
2019-04-05T07:35:13.714Z,51.8
2019-04-05T07:36:06.423Z,50.8
2019-04-05T07:36:54.183Z,48.9
2019-04-05T07:37:43.874Z,46.4
2019-04-05T07:38:33.663Z,45.1
2019-04-05T07:39:24.276Z,45.7
2019-04-05T07:40:13.783Z,47.3
2019-04-05T07:41:04.478Z,48.8
2019-04-05T07:41:53.924Z,49.6
2019-04-05T07:42:44.520Z,49.9
2019-04-05T07:43:34.590Z,49.6
2019-04-05T07:44:24.358Z,48.9
2019-04-05T07:45:14.160Z,48.6
2019-04-05T07:46:04.216Z,48.7
2019-04-05T07:46:54.826Z,49.1
2019-04-05T07:47:44.887Z,49.6
2019-04-05T07:48:48.573Z,49.8
2019-04-05T07:49:24.815Z,50.1
2019-04-05T07:50:14.772Z,50.2
2019-04-05T07:51:05.113Z,50.3
2019-04-05T07:51:55.187Z,50.2
2019-04-05T07:52:45.325Z,49.8
2019-04-05T07:53:35.303Z,49.5
2019-04-05T07:54:24.902Z,49.3
2019-04-05T07:55:14.871Z,49.2
2019-04-05T07:56:05.220Z,49.2
2019-04-05T07:56:55.269Z,49.4
2019-04-05T07:57:45.377Z,50
2019-04-05T07:58:35.397Z,50.6
2019-04-05T07:59:25.739Z,50.9
2019-04-05T08:00:15.817Z,50.8
2019-04-05T08:01:05.833Z,50
2019-04-05T08:01:55.634Z,49.4
2019-04-05T08:02:45.717Z,48.6
2019-04-05T08:03:35.753Z,48
2019-04-05T08:04:26.091Z,47.8
2019-04-05T08:05:15.899Z,47.6
2019-04-05T08:06:05.679Z,47.3
2019-04-05T08:06:56.269Z,46.9
2019-04-05T08:07:46.336Z,46.4
2019-04-05T08:08:36.385Z,45.8
2019-04-05T08:09:26.505Z,45.1
2019-04-05T08:10:16.497Z,44.6
2019-04-05T08:11:06.653Z,44.3
2019-04-05T08:11:56.620Z,43.9
2019-04-05T08:12:46.437Z,43.6
2019-04-05T08:13:36.775Z,43.3
2019-04-05T08:14:26.563Z,42.8
2019-04-05T08:15:16.573Z,42.2
2019-04-05T08:16:06.667Z,41.8
2019-04-05T08:16:56.707Z,41.2
2019-04-05T08:17:46.520Z,40.8
2019-04-05T08:18:36.590Z,40.3
2019-04-05T08:19:26.650Z,39.8
2019-04-05T08:20:17.015Z,39.4
2019-04-05T08:21:07.030Z,39
2019-04-05T08:21:57.364Z,38.7
2019-04-05T08:22:46.850Z,38.3
2019-04-05T08:23:37.205Z,37.9
2019-04-05T08:24:27.595Z,37.6
2019-04-05T08:25:17.322Z,37.3
2019-04-05T08:26:07.652Z,36.9
2019-04-05T08:26:57.721Z,36.6
2019-04-05T08:27:47.527Z,36.3
2019-04-05T08:28:37.870Z,36
2019-04-05T08:29:27.369Z,35.7
2019-04-05T08:30:17.961Z,35.4
2019-04-05T08:31:16.227Z,35.1
2019-04-05T08:31:58.118Z,34.8
2019-04-05T08:32:48.139Z,34.4
2019-04-05T08:33:39.606Z,34.3
2019-04-05T08:34:28.279Z,34
2019-04-05T08:35:18.043Z,33.8
2019-04-05T08:36:07.826Z,33.5
2019-04-05T08:36:58.154Z,33.3
2019-04-05T08:37:48.506Z,33.1
2019-04-05T08:38:41.765Z,32.8
2019-04-05T08:39:28.371Z,32.6
2019-04-05T08:40:18.684Z,32.4
2019-04-05T08:41:08.747Z,32.2
2019-04-05T08:41:58.523Z,32
2019-04-05T08:42:48.884Z,31.8
2019-04-05T08:43:38.699Z,31.6
2019-04-05T08:44:28.706Z,33.5
2019-04-05T08:45:19.054Z,36.3
2019-04-05T08:46:08.573Z,45.1
2019-04-05T08:46:59.158Z,48.8
2019-04-05T08:47:49.036Z,49.5
2019-04-05T08:48:39.009Z,48.1
2019-04-05T08:49:28.814Z,45.1
2019-04-05T08:50:19.398Z,42.8
2019-04-05T08:51:09.208Z,42.1
2019-04-05T08:51:58.995Z,43.4
2019-04-05T08:52:49.378Z,45.5
2019-04-05T08:53:39.646Z,47.1
2019-04-05T08:54:39.423Z,47.8
2019-04-05T08:55:19.773Z,47.4
2019-04-05T08:56:09.773Z,46.8
2019-04-05T08:56:59.909Z,45.4
2019-04-05T08:57:51.213Z,45
2019-04-05T08:58:39.453Z,44.8
2019-04-05T08:59:29.808Z,45.1
2019-04-05T09:00:19.865Z,45.5
2019-04-05T09:01:10.291Z,46
2019-04-05T09:01:59.975Z,46.3
2019-04-05T09:02:50.985Z,46.4
2019-04-05T09:03:39.844Z,46.4
2019-04-05T09:04:29.900Z,46.4
2019-04-05T09:05:20.517Z,46.6
2019-04-05T09:06:09.728Z,46.7
2019-04-05T09:07:00.629Z,46.8
2019-04-05T09:07:50.698Z,46.8
2019-04-05T09:08:40.482Z,46.6
2019-04-05T09:09:30.522Z,46.4
2019-04-05T09:10:20.702Z,46.3
2019-04-05T09:11:10.382Z,46.2
2019-04-05T09:12:01.004Z,46.2
2019-04-05T09:12:51.038Z,46.3
2019-04-05T09:13:41.135Z,46.3
2019-04-05T09:14:30.912Z,46.4
2019-04-05T09:15:20.960Z,46.7
2019-04-05T09:16:14.711Z,47.1
2019-04-05T09:17:01.349Z,47.3
2019-04-05T09:17:51.414Z,47.3
2019-04-05T09:18:41.189Z,47.1
2019-04-05T09:19:30.713Z,46.9
2019-04-05T09:20:21.609Z,46.8
2019-04-05T09:21:13.685Z,46.9
2019-04-05T09:22:01.142Z,46.9
2019-04-05T09:22:51.761Z,47.1
2019-04-05T09:23:41.891Z,47.4
2019-04-05T09:24:31.356Z,47.9
2019-04-05T09:25:23.047Z,48.5
2019-04-05T09:26:12.019Z,49.1
2019-04-05T09:27:02.081Z,49.3
2019-04-05T09:27:51.939Z,49.4
2019-04-05T09:28:41.988Z,49.4
2019-04-05T09:29:32.259Z,49.6
2019-04-05T09:30:22.317Z,49.6
2019-04-05T09:31:12.406Z,49.6
2019-04-05T09:32:16.816Z,49.4
2019-04-05T09:32:52.229Z,49
2019-04-05T09:33:42.566Z,48.9
2019-04-05T09:34:32.753Z,49
2019-04-05T09:35:22.454Z,49.6
2019-04-05T09:36:12.742Z,50.4
2019-04-05T09:37:02.561Z,51.3
2019-04-05T09:37:52.053Z,51.7
2019-04-05T09:38:42.910Z,51.6
2019-04-05T09:39:32.697Z,51
2019-04-05T09:40:24.099Z,50.1
2019-04-05T09:41:12.832Z,49.3
2019-04-05T09:42:02.647Z,48.9
2019-04-05T09:42:52.695Z,48.6
2019-04-05T09:43:43.053Z,48.5
2019-04-05T09:44:33.347Z,48.3
2019-04-05T09:45:23.138Z,48
2019-04-05T09:46:13.475Z,47.6
2019-04-05T09:47:02.711Z,47.1
2019-04-05T09:47:53.310Z,46.7
2019-04-05T09:48:43.658Z,46.3
2019-04-05T09:49:40.355Z,46.1
2019-04-05T09:50:23.477Z,45.8
2019-04-05T09:51:13.837Z,45.6
2019-04-05T09:52:03.066Z,45.4
2019-04-05T09:52:53.144Z,45.2
2019-04-05T09:53:44.041Z,44.9
2019-04-05T09:54:34.069Z,44.6
2019-04-05T09:55:24.122Z,44.1
2019-04-05T09:56:13.637Z,43.5
2019-04-05T09:57:04.277Z,43
2019-04-05T09:57:53.757Z,42.4
2019-04-05T09:58:44.402Z,41.9
2019-04-05T10:00:24.499Z,41
2019-04-05T10:01:14.297Z,40.6
2019-04-05T10:02:04.684Z,40.2
2019-04-05T10:02:54.481Z,39.8
2019-04-05T10:03:44.234Z,39.4
2019-04-05T10:07:10.709Z,38.4
2019-04-05T10:08:21.268Z,37.3
2019-04-05T10:09:39.028Z,36.8
2019-04-05T10:10:28.537Z,36.4
2019-04-05T12:06:11.289Z,40.3
2019-04-05T12:07:01.129Z,39.7
2019-04-05T12:07:51.815Z,39.3
2019-04-05T12:08:41.482Z,38.8
2019-04-05T12:09:31.835Z,38.4
2019-04-05T12:10:22.664Z,38.1
2019-04-05T12:11:11.922Z,37.7
2019-04-05T12:12:01.527Z,37.3
2019-04-05T12:12:52.097Z,36.9
2019-04-05T12:13:41.852Z,36.6
2019-04-05T12:14:37.749Z,36.3
2019-04-05T12:15:22.004Z,35.9
2019-04-05T12:16:13.714Z,35.6
2019-04-05T12:17:06.216Z,35.3
2019-04-05T12:17:51.889Z,34.9
2019-04-05T12:18:42.524Z,34.8
2019-04-05T12:19:38.302Z,34.4
2019-04-05T12:20:22.591Z,34.1
2019-04-05T12:21:12.148Z,33.8
2019-04-05T12:22:09.807Z,33.6
2019-04-05T12:22:55.992Z,33.3
2019-04-05T12:23:42.700Z,33.1
2019-04-05T12:24:36.185Z,32.9
2019-04-05T12:25:22.976Z,32.6
2019-04-05T12:26:12.764Z,32.4
2019-04-05T12:27:07.600Z,32.2
2019-04-05T12:28:11.004Z,31.9
2019-04-05T12:28:42.921Z,31.7
2019-04-05T12:29:32.983Z,31.6
2019-04-05T12:30:22.813Z,31.4
2019-04-05T12:31:13.396Z,31.1
2019-04-05T12:32:03.506Z,30.9
2019-04-05T12:32:53.266Z,30.8
2019-04-05T12:33:46.541Z,30.5
2019-04-05T12:34:32.835Z,30.4
2019-04-05T12:35:25.381Z,30.3
2019-04-05T12:36:13.471Z,30.1
2019-04-05T12:37:03.810Z,29.9
2019-04-05T12:37:58.865Z,29.8
2019-04-05T12:38:43.940Z,29.6
2019-04-05T12:39:38.184Z,29.4
2019-04-05T12:40:24.059Z,29.3
2019-04-05T12:41:14.870Z,29.1
2019-04-05T12:42:03.933Z,29
2019-04-05T12:42:56.556Z,28.8
2019-04-05T12:43:47.176Z,28.7
2019-04-05T12:44:33.809Z,28.6
2019-04-05T12:45:24.416Z,28.4
2019-04-05T12:46:19.242Z,28.3
2019-04-05T12:47:04.003Z,28.3
2019-04-05T12:47:54.326Z,28.1
2019-04-05T12:48:48.643Z,27.9
2019-04-05T12:49:34.724Z,27.9
2019-04-05T12:50:24.517Z,27.8
2019-04-05T12:51:18.957Z,27.6
2019-04-05T12:52:04.127Z,27.5
2019-04-05T12:52:58.949Z,27.4
2019-04-05T12:53:44.547Z,27.3
2019-04-05T12:54:34.532Z,27.2
2019-04-05T12:55:27.507Z,27.1
2019-04-05T12:56:14.667Z,27
2019-04-05T12:57:05.051Z,26.9
2019-04-05T12:57:58.388Z,26.8
2019-04-05T12:58:45.408Z,26.7
2019-04-05T12:59:35.209Z,26.6
2019-04-05T13:00:29.380Z,26.6
2019-04-05T13:01:15.322Z,26.4
2019-04-05T13:02:05.379Z,26.3
2019-04-05T13:02:58.252Z,26.3
2019-04-05T13:03:45.229Z,26.2
2019-04-05T13:04:35.536Z,26.1
2019-04-05T13:05:25.348Z,26.1
2019-04-05T13:06:16.434Z,25.9
2019-04-05T13:07:06.007Z,25.9
2019-04-05T13:07:57.084Z,25.8
2019-04-05T13:08:46.136Z,25.7
2019-04-05T13:09:36.299Z,25.7
2019-04-05T13:10:32.535Z,25.6
2019-04-05T13:11:16.406Z,25.5
2019-04-05T13:12:06.189Z,25.4
2019-04-05T13:13:01.075Z,25.4
2019-04-05T13:13:45.656Z,25.3
2019-04-05T13:14:36.554Z,25.3
2019-04-05T13:15:25.513Z,25.2
2019-04-05T13:16:16.386Z,25.1
2019-04-05T13:17:06.218Z,25.1
2019-04-05T13:17:56.511Z,25
2019-04-05T13:18:46.314Z,24.9
2019-04-05T13:19:36.949Z,24.9
2019-04-05T13:20:30.051Z,24.9
2019-04-05T13:21:18.723Z,24.8
2019-04-05T13:22:07.135Z,24.8
2019-04-05T13:22:56.604Z,24.7
2019-04-05T13:23:46.703Z,24.6
2019-04-05T13:24:41.450Z,24.6
2019-04-05T13:25:27.127Z,24.6
2019-04-05T13:26:16.868Z,24.4
2019-04-05T13:27:07.510Z,24.4
2019-04-05T13:27:57.537Z,24.4
2019-04-05T13:28:51.741Z,24.3
2019-04-05T13:29:37.375Z,24.3
2019-04-05T13:30:27.813Z,24.3
2019-04-05T13:31:21.422Z,24.2
2019-04-05T13:32:07.559Z,24.1
2019-04-05T13:32:57.085Z,24.1
2019-04-05T13:33:47.412Z,24.1
2019-04-05T13:34:38.000Z,24
2019-04-05T13:35:27.812Z,24
2019-04-05T13:36:18.130Z,23.9
2019-04-05T13:37:22.270Z,23.9
2019-04-05T13:38:02.115Z,23.8
2019-04-05T13:39:02.647Z,23.8
2019-04-05T13:39:38.152Z,23.8
2019-04-05T13:40:32.607Z,23.8
2019-04-05T13:41:21.085Z,23.8
2019-04-05T13:42:08.622Z,23.6
2019-04-05T13:43:03.150Z,23.6
2019-04-05T13:43:48.394Z,23.6
2019-04-05T13:44:38.474Z,23.6
2019-04-05T13:45:28.242Z,23.6
2019-04-05T13:46:28.823Z,23.5
2019-04-05T13:47:12.052Z,23.4
2019-04-05T13:47:58.979Z,23.4
2019-04-05T13:48:48.780Z,23.4
2019-04-05T13:49:43.419Z,23.4
2019-04-05T13:50:28.899Z,23.3
2019-04-05T13:51:34.566Z,23.3
2019-04-05T13:52:14.669Z,23.3
2019-04-05T13:52:59.082Z,23.3
2019-04-05T13:53:49.489Z,23.2
2019-04-05T13:54:42.773Z,23.2
2019-04-05T13:55:29.581Z,23.1
2019-04-05T13:56:19.594Z,23.1
2019-04-05T13:57:13.286Z,23.1
2019-04-05T13:58:02.744Z,23.1
2019-04-05T13:58:50.153Z,23
2019-04-05T13:59:39.568Z,23
2019-04-05T14:00:29.623Z,23
2019-04-05T14:01:24.677Z,22.9
2019-04-05T14:02:10.256Z,22.9
2019-04-05T14:02:59.816Z,22.9
2019-04-05T14:03:53.395Z,22.9
2019-04-05T14:04:40.196Z,22.9
2019-04-05T14:07:11.205Z,22.8
2019-04-05T14:08:13.794Z,22.8
2019-04-05T14:08:51.338Z,22.8
2019-04-05T14:09:44.161Z,22.7
2019-04-05T14:10:31.487Z,22.7
2019-04-05T14:11:20.958Z,22.7
2019-04-05T14:12:13.259Z,22.6
2019-04-05T14:13:01.896Z,22.6
2019-04-05T14:13:51.410Z,22.6
2019-04-05T14:14:47.614Z,22.6
2019-04-05T14:15:34.366Z,22.6
2019-04-05T14:16:22.156Z,22.5
2019-04-05T14:17:16.720Z,22.5
2019-04-05T14:18:02.283Z,22.5
2019-04-05T14:18:53.319Z,22.5
2019-04-05T14:19:42.124Z,22.4
2019-04-05T14:20:32.177Z,22.4
2019-04-05T14:21:25.399Z,22.4
2019-04-05T14:22:14.961Z,22.4
2019-04-05T14:23:03.925Z,22.4
2019-04-05T14:23:57.293Z,22.4
2019-04-05T14:24:45.148Z,22.3
2019-04-05T14:25:35.413Z,22.3
2019-04-05T14:26:25.263Z,22.3
2019-04-05T14:27:15.330Z,22.3
2019-04-05T14:28:08.325Z,22.3
2019-04-05T14:28:56.555Z,22.3
2019-04-05T14:29:47.412Z,22.3
2019-04-05T14:30:36.738Z,22.3
2019-04-05T14:31:25.370Z,22.2
2019-04-05T14:32:25.018Z,22.2
2019-04-05T14:33:05.502Z,22.1
2019-04-05T14:33:57.927Z,22.1
2019-04-05T14:34:45.872Z,22.1
2019-04-05T14:35:35.932Z,22.1
2019-04-05T14:36:26.695Z,22.1
2019-04-05T14:37:16.055Z,22.1
2019-04-05T14:38:06.466Z,22.1
2019-04-05T14:38:56.207Z,22.1
2019-04-05T14:39:45.955Z,22.1
2019-04-05T14:40:36.313Z,22
2019-04-05T14:41:26.353Z,22
2019-04-05T14:42:18.620Z,22
2019-04-05T14:43:06.508Z,22
2019-04-05T14:43:57.031Z,22
2019-04-05T14:44:46.647Z,22
2019-04-05T14:45:36.460Z,21.9
2019-04-05T14:46:31.159Z,21.9
2019-04-05T14:47:16.513Z,21.9
2019-04-05T14:48:05.819Z,21.9
2019-04-05T14:48:56.352Z,21.9
2019-04-05T14:49:46.709Z,21.9
2019-04-05T14:50:36.774Z,21.9
2019-04-05T14:51:31.431Z,21.9
2019-04-05T14:52:16.864Z,21.8
2019-04-05T14:53:06.889Z,21.8
2019-04-05T14:53:56.999Z,21.8
2019-04-05T14:54:46.860Z,21.8
2019-04-05T14:55:37.147Z,21.8
2019-04-05T14:56:31.656Z,21.8
2019-04-05T14:57:17.526Z,21.8
2019-04-05T14:58:12.491Z,21.8
2019-04-05T14:58:57.639Z,21.8
2019-04-05T14:59:47.443Z,21.8
2019-04-05T15:00:37.775Z,21.7
2019-04-05T15:01:27.546Z,21.7
2019-04-05T15:02:17.326Z,21.7
2019-04-05T15:03:07.941Z,21.7
2019-04-05T15:03:57.740Z,21.7
2019-04-05T15:04:50.852Z,21.7
2019-04-05T15:05:38.111Z,21.6
2019-04-05T15:06:29.821Z,21.6
2019-04-05T15:07:22.528Z,21.6
2019-04-05T15:08:08.113Z,21.6
2019-04-05T15:08:58.078Z,21.6
2019-04-05T15:09:47.583Z,21.6
2019-04-05T15:10:38.214Z,21.6
2019-04-05T15:11:32.260Z,21.6
2019-04-05T15:12:18.590Z,21.6
2019-04-05T15:13:08.675Z,21.6
2019-04-05T15:13:58.170Z,21.6
2019-04-05T15:14:48.800Z,21.6
2019-04-05T15:15:38.015Z,21.5
2019-04-05T15:16:28.648Z,21.5
2019-04-05T15:17:19.473Z,21.5
2019-04-05T15:18:08.735Z,21.5
2019-04-05T15:18:59.082Z,21.4
2019-04-05T15:19:49.137Z,21.5
2019-04-05T15:20:38.989Z,21.4
2019-04-05T15:21:29.008Z,21.4
2019-04-05T15:22:19.053Z,21.4
2019-04-05T15:23:16.530Z,21.4
2019-04-05T15:23:59.465Z,21.4
2019-04-05T15:24:50.955Z,21.4
2019-04-05T15:25:38.813Z,21.4
2019-04-05T15:26:29.619Z,21.4
2019-04-05T15:27:23.245Z,21.4
2019-04-05T15:28:09.745Z,21.4
2019-04-05T15:28:59.539Z,21.4
2019-04-05T15:29:49.907Z,21.4
2019-04-05T15:30:39.950Z,21.4
2019-04-05T15:31:30.064Z,21.4
2019-04-05T15:32:26.526Z,21.4
2019-04-05T15:33:09.879Z,21.3
2019-04-05T15:34:01.662Z,21.3
2019-04-05T15:34:49.987Z,21.3
2019-04-05T15:35:40.299Z,21.3
2019-04-05T15:36:34.316Z,21.3
2019-04-05T15:37:20.142Z,21.3
2019-04-05T15:38:10.206Z,21.3
2019-04-05T15:39:04.375Z,21.3
2019-04-05T15:39:50.354Z,21.3
2019-04-05T15:40:40.383Z,21.3
2019-04-05T15:41:30.448Z,21.3
2019-04-05T15:42:20.818Z,21.3
2019-04-05T15:43:10.851Z,21.3
2019-04-05T15:44:00.898Z,21.3
2019-04-05T15:44:51.214Z,21.2
2019-04-05T15:45:43.757Z,21.3
2019-04-05T15:46:30.554Z,21.3
2019-04-05T15:47:24.931Z,21.2
2019-04-05T15:48:10.669Z,21.2
2019-04-05T15:49:01.016Z,21.2
2019-04-05T15:49:55.543Z,21.2
2019-04-05T15:50:40.826Z,21.2
2019-04-05T15:51:31.443Z,21.2
2019-04-05T15:52:22.714Z,21.2
2019-04-05T15:54:51.441Z,21.2
2019-04-05T16:00:41.910Z,21.1
2019-04-05T16:02:22.238Z,21.1
2019-04-05T16:03:12.007Z,21.1
2019-04-05T16:04:05.807Z,21.1
2019-04-05T16:04:51.905Z,21.1
2019-04-05T16:07:11.137Z,21.1
2019-04-05T16:08:00.981Z,21.1
2019-04-05T16:08:51.263Z,21
2019-04-05T16:09:41.315Z,21
2019-04-05T16:10:31.662Z,21.1
2019-04-05T16:11:21.705Z,21
2019-04-05T16:12:11.750Z,21
2019-04-05T16:13:01.539Z,21
2019-04-05T16:13:51.621Z,21
2019-04-05T16:14:41.676Z,21
2019-04-05T16:15:31.720Z,21
2019-04-05T16:16:22.075Z,21
2019-04-05T16:17:14.665Z,21
2019-04-05T16:18:01.910Z,21
2019-04-05T16:18:52.247Z,21
2019-04-05T16:19:42.363Z,21
2019-04-05T16:20:31.884Z,20.9
2019-04-05T16:21:21.947Z,20.9
2019-04-05T16:22:11.937Z,20.9
2019-04-05T16:23:02.034Z,20.9
2019-04-05T16:23:51.514Z,20.9
2019-04-05T16:24:42.137Z,20.9
2019-04-05T16:25:32.741Z,20.9
2019-04-05T16:26:22.806Z,20.9
2019-04-05T16:27:12.597Z,20.9
2019-04-05T16:28:02.187Z,20.9
2019-04-05T16:28:52.983Z,20.9